Time;durP1;ratioP1;P1;durP2;ratioP2;P2;SDS_P1;SDS_P2;PMS_P1;PMS_P2;Temp;Humidity;BMP_temperature;BMP_pressure;BME280_temperature;BME280_humidity;BME280_pressure;Samples;Min_cycle;Max_cycle;Signal;HPM_P1;HPM_P2
2022/12/29 00:02:10;;;;;;;35.88;21.95;;;16.00;76.30;;;17.58;41.92;98736.09;5012834;28;20065;-79
2022/12/29 00:04:37;;;;;;;39.75;23.08;;;16.00;76.20;;;17.55;41.90;98726.56;5034166;28;20711;-79
2022/12/29 00:07:06;;;;;;;34.72;21.83;;;16.00;76.00;;;17.55;41.96;98729.31;5029393;28;20041;-79
2022/12/29 00:09:33;;;;;;;43.22;24.70;;;16.00;76.20;;;17.53;42.06;98731.56;5025295;28;20049;-79
2022/12/29 00:11:59;;;;;;;39.63;24.05;;;16.00;76.10;;;17.53;41.70;98726.06;5030465;28;20045;-79
2022/12/29 00:17:10;;;;;;;39.90;24.15;;;16.00;76.20;;;17.53;41.90;98715.09;5036682;28;20083;-79
2022/12/29 00:36:20;;;;;;;39.75;24.88;;;15.90;76.20;;;17.47;42.14;98716.38;5024276;28;20036;-78
2022/12/29 00:44:26;;;;;;;37.83;23.83;;;16.00;76.20;;;17.55;42.26;98725.72;5037867;28;20135;-79
2022/12/29 00:46:53;;;;;;;40.38;23.48;;;16.00;76.60;;;17.56;42.13;98724.63;5019158;28;20123;-79
2022/12/29 00:49:31;;;;;;;40.95;23.65;;;16.00;76.90;;;17.50;42.27;98712.19;5046937;28;20056;-80
2022/12/29 00:52:04;;;;;;;41.05;24.52;;;15.90;76.50;;;17.49;42.12;98719.59;5032792;28;20128;-80
2022/12/29 00:54:33;;;;;;;38.20;24.40;;;16.00;76.60;;;17.50;42.25;98714.91;5015225;28;20617;-79
2022/12/29 00:56:59;;;;;;;40.63;23.00;;;16.00;76.60;;;17.47;42.06;98710.88;5018898;28;20041;-79
2022/12/29 00:59:25;;;;;;;36.22;23.45;;;16.00;76.60;;;17.50;42.31;98702.03;5028462;28;20076;-79
2022/12/29 01:01:52;;;;;;;40.42;24.95;;;15.90;76.70;;;17.54;42.37;98699.44;5035202;28;20056;-79
2022/12/29 01:04:22;;;;;;;41.80;23.45;;;16.00;76.70;;;17.54;42.50;98710.44;5014444;28;20041;-79
2022/12/29 01:06:48;;;;;;;38.42;23.58;;;16.00;76.60;;;17.53;42.28;98704.13;5013240;28;20139;-79
2022/12/29 01:11:59;;;;;;;36.75;24.85;;;16.10;76.40;;;17.48;42.23;98696.06;5036011;28;20047;-79
2022/12/29 01:14:25;;;;;;;41.92;24.70;;;16.00;76.50;;;17.50;42.51;98703.97;5033792;28;20037;-79
2022/12/29 01:16:52;;;;;;;39.35;23.45;;;16.00;76.60;;;17.47;42.41;98697.19;5049436;28;20036;-79
2022/12/29 01:19:18;;;;;;;36.97;23.73;;;16.00;76.80;;;17.45;42.64;98693.94;5019628;28;20123;-80
2022/12/29 01:21:45;;;;;;;40.78;24.70;;;16.00;77.10;;;17.45;42.33;98688.47;5018316;28;20053;-79
2022/12/29 01:24:11;;;;;;;37.88;22.80;;;16.00;76.70;;;17.46;42.40;98687.34;4981738;28;20063;-79
2022/12/29 01:26:37;;;;;;;41.13;23.77;;;15.90;76.60;;;17.46;42.20;98687.34;5016944;28;20052;-79
2022/12/29 01:29:03;;;;;;;42.08;25.55;;;16.00;76.50;;;17.45;42.34;98676.69;4982305;28;20039;-79
2022/12/29 01:31:29;;;;;;;48.10;23.92;;;15.90;76.50;;;17.40;42.38;98683.13;5040736;28;20041;-79
2022/12/29 01:33:55;;;;;;;43.08;23.33;;;15.90;76.50;;;17.40;42.09;98683.13;4994245;28;20048;-79
2022/12/29 01:36:23;;;;;;;37.70;24.95;;;16.00;76.40;;;17.41;42.23;98678.47;5009934;28;20086;-79
2022/12/29 01:38:49;;;;;;;35.75;23.42;;;16.00;76.30;;;17.43;42.25;98690.75;5014625;28;20059;-79
2022/12/29 01:41:16;;;;;;;38.58;22.75;;;15.90;76.40;;;17.45;42.02;98688.47;5012286;28;20033;-79
2022/12/29 01:43:56;;;;;;;37.70;23.73;;;15.90;76.40;;;17.39;42.27;98695.25;5014841;28;20488;-79
2022/12/29 01:46:26;;;;;;;37.53;23.30;;;15.90;76.40;;;17.39;42.12;98686.22;4999219;28;20038;-79
2022/12/29 01:49:02;;;;;;;37.22;22.45;;;15.90;76.40;;;17.39;42.14;98692.50;4999215;28;20107;-79
2022/12/29 01:51:29;;;;;;;42.40;24.38;;;16.00;76.50;;;17.45;42.49;98691.19;4994867;28;20048;-79
2022/12/29 01:53:55;;;;;;;41.17;23.45;;;16.00;76.60;;;17.45;42.64;98677.50;5025100;28;20047;-79
2022/12/29 01:56:22;;;;;;;39.05;23.63;;;16.10;76.50;;;17.44;42.29;98678.63;4983434;28;20366;-79
2022/12/29 01:58:53;;;;;;;35.17;23.38;;;16.00;76.20;;;17.42;42.55;98672.66;5008641;28;20057;-79
2022/12/29 02:01:19;;;;;;;44.13;24.88;;;16.00;76.20;;;17.40;42.18;98677.66;4994886;28;20502;-79
2022/12/29 02:03:45;;;;;;;47.55;26.60;;;16.00;76.30;;;17.44;42.29;98669.59;4995846;28;20041;-79
2022/12/29 02:06:20;;;;;;;39.33;23.70;;;16.00;76.40;;;17.44;42.59;98673.16;4995032;28;20064;-79
2022/12/29 02:08:47;;;;;;;42.65;25.42;;;16.00;76.70;;;17.45;42.51;98657.50;4983487;28;20045;-79
2022/12/29 02:11:13;;;;;;;39.35;23.45;;;16.00;76.80;;;17.47;42.18;98660.72;5009042;28;20044;-79
2022/12/29 02:13:39;;;;;;;37.05;22.30;;;16.00;76.50;;;17.42;42.23;98671.84;5009607;28;20041;-80
2022/12/29 02:16:20;;;;;;;39.67;24.58;;;16.00;76.40;;;17.36;42.27;98654.78;5026603;28;20045;-80
2022/12/29 02:19:24;;;;;;;39.05;24.10;;;16.00;76.30;;;17.40;42.18;98671.38;5024837;28;20100;-80
2022/12/29 02:21:56;;;;;;;38.25;23.38;;;16.00;76.20;;;17.36;42.32;98660.25;5042299;28;20056;-80
2022/12/29 02:24:27;;;;;;;38.53;23.77;;;16.00;76.10;;;17.35;42.25;98656.72;5052606;28;20471;-80
2022/12/29 02:27:24;;;;;;;41.83;22.85;;;16.00;76.20;;;17.36;42.21;98650.09;5050017;28;20051;-80
2022/12/29 02:30:31;;;;;;;39.13;23.85;;;16.00;76.40;;;17.38;42.21;98644.28;5047274;28;20048;-79
2022/12/29 02:33:21;;;;;;;36.65;23.08;;;15.90;76.50;;;17.43;42.14;98638.66;5058811;28;20070;-80
2022/12/29 02:36:25;;;;;;;39.65;22.98;;;16.00;76.50;;;17.41;42.39;98631.88;5048935;28;20044;-79
2022/12/29 02:39:06;;;;;;;41.78;24.00;;;16.00;76.30;;;17.35;42.13;98631.19;5048157;28;20068;-79
2022/12/29 02:41:50;;;;;;;32.97;22.92;;;16.00;76.60;;;17.34;42.43;98646.84;5058977;28;20384;-80
2022/12/29 02:44:52;;;;;;;46.33;24.40;;;15.90;76.30;;;17.37;42.37;98628.94;5060510;28;20033;-79
2022/12/29 02:47:37;;;;;;;35.20;22.23;;;15.90;76.40;;;17.38;41.92;98637.97;5021934;28;20140;-80
2022/12/29 02:50:35;;;;;;;31.48;22.02;;;15.90;76.30;;;17.38;41.94;98644.28;5045473;28;20040;-80
2022/12/29 02:53:06;;;;;;;38.60;23.88;;;15.90;76.30;;;17.39;42.13;98642.34;5030250;28;20036;-80
2022/12/29 02:55:32;;;;;;;40.65;24.05;;;15.90;76.20;;;17.36;41.88;98635.56;5030555;28;20049;-79
2022/12/29 02:58:17;;;;;;;36.45;22.25;;;15.90;76.00;;;17.41;42.33;98637.34;5015093;28;20066;-79
2022/12/29 03:00:58;;;;;;;41.33;22.80;;;16.00;76.50;;;17.43;42.36;98621.38;5033328;28;20035;-79
2022/12/29 03:04:03;;;;;;;33.92;22.17;;;16.00;76.50;;;17.39;42.05;98623.97;5029076;28;20110;-79
2022/12/29 03:07:37;;;;;;;40.63;22.13;;;16.00;76.20;;;17.35;42.14;98621.06;5029273;28;20119;-79
2022/12/29 03:10:37;;;;;;;37.40;22.15;;;16.00;76.10;;;17.32;42.38;98612.66;5029013;28;20060;-79
2022/12/29 03:16:29;;;;;;;35.30;21.48;;;16.00;76.50;;;17.43;42.31;98615.88;5060395;28;20124;-79
2022/12/29 03:19:01;;;;;;;35.45;21.58;;;16.00;77.20;;;17.44;42.28;98615.56;5016829;28;20074;-79
2022/12/29 03:24:27;;;;;;;36.65;22.23;;;16.00;76.20;;;17.36;42.33;98621.88;5034225;28;20037;-79
2022/12/29 03:26:56;;;;;;;34.10;22.92;;;16.00;76.20;;;17.41;42.11;98615.41;5017379;28;20076;-79
2022/12/29 03:29:22;;;;;;;37.53;23.25;;;16.00;76.10;;;17.43;42.48;98621.38;5012544;28;20047;-79
2022/12/29 03:31:49;;;;;;;40.42;22.50;;;16.00;76.60;;;17.50;42.37;98617.03;5044653;28;20068;-79
2022/12/29 03:34:16;;;;;;;36.60;22.80;;;16.10;76.60;;;17.49;42.14;98623.63;5045358;28;20036;-79
2022/12/29 03:37:11;;;;;;;38.55;23.63;;;16.10;76.30;;;17.46;42.41;98610.56;5011936;28;20041;-79
2022/12/29 03:39:37;;;;;;;38.45;22.52;;;16.10;76.30;;;17.47;42.08;98611.38;5028936;28;20057;-79
2022/12/29 03:42:06;;;;;;;38.75;22.70;;;16.00;76.20;;;17.46;42.06;98613.31;5018218;28;20041;-79
2022/12/29 03:44:36;;;;;;;38.63;22.85;;;16.00;76.10;;;17.49;42.00;98620.88;5017788;28;20493;-79
2022/12/29 03:47:02;;;;;;;34.58;20.85;;;16.00;76.20;;;17.54;41.81;98625.41;5014204;28;20068;-79
2022/12/29 03:49:28;;;;;;;39.00;22.40;;;16.00;76.00;;;17.56;41.72;98612.97;5016890;28;20036;-79
2022/12/29 03:51:54;;;;;;;39.30;24.30;;;16.20;76.00;;;17.60;41.95;98593.13;5016015;28;20402;-79
2022/12/29 03:54:21;;;;;;;43.20;23.58;;;16.10;75.90;;;17.59;41.78;98597.81;5033062;28;20385;-79
2022/12/29 03:56:47;;;;;;;37.67;22.05;;;16.10;75.80;;;17.67;42.04;98593.44;5048549;28;20883;-80
2022/12/29 03:59:13;;;;;;;38.40;21.08;;;16.20;76.10;;;17.66;42.29;98598.13;5000854;28;20047;-80
2022/12/29 04:01:39;;;;;;;35.60;22.98;;;16.20;76.40;;;17.72;41.71;98612.47;5033619;28;20044;-79
2022/12/29 04:04:05;;;;;;;34.10;21.55;;;16.20;76.20;;;17.70;41.89;98622.97;5030724;28;20033;-79
2022/12/29 04:06:31;;;;;;;37.47;22.02;;;16.20;76.00;;;17.75;41.78;98628.28;5015333;28;20471;-79
2022/12/29 04:08:57;;;;;;;34.65;20.67;;;16.20;76.00;;;17.76;41.57;98624.44;5031336;28;20041;-79
2022/12/29 04:11:23;;;;;;;31.95;21.55;;;16.10;76.00;;;17.74;42.03;98624.75;5031302;28;20041;-79
2022/12/29 04:13:50;;;;;;;31.60;20.92;;;16.10;76.40;;;17.80;41.77;98622.66;5028709;28;20049;-79
2022/12/29 04:16:16;;;;;;;30.13;19.42;;;16.10;76.70;;;17.82;41.83;98623.13;5046264;28;20642;-79
2022/12/29 04:18:42;;;;;;;34.83;21.83;;;16.10;76.80;;;17.84;41.98;98615.41;5033982;28;20185;-79
2022/12/29 04:21:08;;;;;;;36.78;22.50;;;16.10;76.40;;;17.86;41.39;98610.38;5029024;28;20471;-79
2022/12/29 04:23:36;;;;;;;35.28;21.42;;;16.10;76.30;;;17.83;41.60;98608.28;5046553;28;20044;-79
2022/12/29 04:26:03;;;;;;;33.08;21.55;;;16.10;76.30;;;17.89;41.35;98600.69;5017827;28;20045;-79
2022/12/29 04:28:29;;;;;;;34.15;21.95;;;16.10;76.50;;;17.88;41.52;98599.06;5017713;28;20040;-79
2022/12/29 04:30:55;;;;;;;34.95;22.17;;;16.00;76.60;;;17.92;41.60;98594.56;5036625;28;20045;-79
2022/12/29 04:33:22;;;;;;;35.13;20.90;;;16.10;76.70;;;17.95;41.51;98589.22;5035118;28;20089;-79
2022/12/29 04:35:48;;;;;;;34.72;20.85;;;16.10;76.70;;;17.98;41.49;98577.56;5015841;28;20447;-79
2022/12/29 04:38:14;;;;;;;30.13;19.95;;;16.20;76.50;;;17.95;41.57;98578.22;5015603;28;20036;-79
2022/12/29 04:40:41;;;;;;;32.25;21.20;;;16.20;76.50;;;18.00;41.37;98569.81;5035190;28;20041;-79
2022/12/29 04:43:08;;;;;;;39.15;20.75;;;16.20;76.60;;;17.99;41.49;98570.97;5036166;28;20040;-79
2022/12/29 04:45:34;;;;;;;31.60;19.30;;;16.10;76.60;;;18.05;41.38;98577.06;5032933;28;20067;-79
2022/12/29 04:48:00;;;;;;;33.42;20.30;;;16.20;76.20;;;18.06;41.53;98570.44;5014033;28;20146;-79
2022/12/29 04:50:26;;;;;;;34.47;21.20;;;16.30;76.10;;;18.12;41.24;98573.81;5019731;28;20036;-79
2022/12/29 04:52:52;;;;;;;34.83;19.55;;;16.40;76.00;;;18.14;40.98;98574.28;5030564;28;20037;-79
2022/12/29 04:55:18;;;;;;;34.95;21.20;;;16.40;76.00;;;18.13;41.50;98567.19;5030880;28;20040;-79
2022/12/29 04:57:44;;;;;;;32.47;19.50;;;16.40;76.20;;;18.12;41.39;98571.88;5031097;28;20093;-79
2022/12/29 05:00:11;;;;;;;35.85;19.80;;;16.40;77.10;;;18.13;41.52;98564.44;5045172;28;20484;-79
2022/12/29 05:02:38;;;;;;;33.65;20.98;;;16.40;76.50;;;18.18;41.32;98569.75;5048140;28;20455;-79
2022/12/29 05:05:05;;;;;;;35.63;21.23;;;16.30;76.30;;;18.17;41.42;98560.72;5046607;28;20762;-79
2022/12/29 05:07:33;;;;;;;31.33;18.48;;;16.30;76.50;;;18.18;41.28;98561.53;5013045;28;20041;-79
2022/12/29 05:09:59;;;;;;;30.80;20.85;;;16.30;76.50;;;18.22;40.75;98562.47;5018023;28;20040;-80
2022/12/29 05:12:25;;;;;;;31.65;19.23;;;16.40;76.20;;;18.28;41.21;98571.34;5032584;28;20419;-79
2022/12/29 05:14:51;;;;;;;33.80;19.75;;;16.50;76.30;;;18.29;41.45;98565.50;5033019;28;20052;-79
2022/12/29 05:17:18;;;;;;;31.27;19.88;;;16.50;76.40;;;18.34;41.29;98573.56;5046853;28;20049;-79
2022/12/29 05:19:44;;;;;;;33.30;19.65;;;16.50;76.50;;;18.32;41.19;98570.34;5044772;28;20044;-79
2022/12/29 05:22:10;;;;;;;30.42;19.33;;;16.50;76.30;;;18.33;41.18;98580.19;5048877;28;20059;-79
2022/12/29 05:24:38;;;;;;;32.70;19.05;;;16.50;76.30;;;18.29;41.20;98575.69;5033736;28;20049;-79
2022/12/29 05:27:05;;;;;;;37.15;21.48;;;16.50;76.30;;;18.36;41.01;98571.28;5018392;28;20037;-79
2022/12/29 05:29:31;;;;;;;32.22;19.98;;;16.50;76.50;;;18.34;41.13;98587.31;5016450;28;20032;-79
2022/12/29 05:31:57;;;;;;;31.48;20.00;;;16.50;76.20;;;18.36;41.33;98579.53;5019330;28;20041;-79
2022/12/29 05:34:23;;;;;;;31.15;19.05;;;16.60;76.10;;;18.34;41.16;98583.72;5030252;28;20036;-79
2022/12/29 05:36:49;;;;;;;30.10;19.30;;;16.60;76.00;;;18.41;41.28;98575.78;5049025;28;20048;-79
2022/12/29 05:39:16;;;;;;;33.50;20.70;;;16.60;76.00;;;18.42;40.89;98580.97;5001453;28;20047;-79
2022/12/29 05:41:43;;;;;;;30.98;20.08;;;16.60;75.90;;;18.46;40.87;98580.28;4998313;28;20059;-79
2022/12/29 05:44:10;;;;;;;31.92;19.42;;;16.50;76.20;;;18.48;41.04;98578.03;5013589;28;20041;-79
2022/12/29 05:46:37;;;;;;;31.80;19.20;;;16.60;76.30;;;18.44;40.73;98577.88;5046587;28;20049;-79
2022/12/29 05:49:03;;;;;;;35.22;18.27;;;16.60;76.10;;;18.43;41.11;98571.56;5015086;28;20036;-79
2022/12/29 05:51:29;;;;;;;25.83;17.75;;;16.60;76.30;;;18.46;41.19;98575.59;5014662;28;20043;-79
2022/12/29 05:53:55;;;;;;;30.05;19.40;;;16.60;76.50;;;18.48;41.25;98576.06;5049809;28;20048;-78
2022/12/29 05:56:23;;;;;;;30.25;19.77;;;16.60;76.70;;;18.52;41.10;98559.72;5012793;28;20047;-79
2022/12/29 05:58:50;;;;;;;26.52;18.05;;;16.60;76.60;;;18.49;41.10;98557.66;5035317;28;20063;-79
2022/12/29 06:01:16;;;;;;;31.17;19.33;;;16.60;76.50;;;18.50;41.08;98560.06;5001805;28;20041;-79
2022/12/29 06:03:42;;;;;;;29.60;17.95;;;16.50;76.60;;;18.49;41.21;98557.66;5018840;28;20354;-79
2022/12/29 06:06:09;;;;;;;30.83;18.50;;;16.50;76.80;;;18.48;40.90;98558.81;5029067;28;20045;-79
2022/12/29 06:08:35;;;;;;;33.33;20.20;;;16.50;76.60;;;18.50;41.22;98556.53;5027960;28;20396;-78
2022/12/29 06:11:01;;;;;;;30.50;18.83;;;16.60;76.60;;;18.49;40.96;98557.66;4997520;28;20033;-79
2022/12/29 06:13:27;;;;;;;31.27;17.83;;;16.60;76.50;;;18.52;41.28;98551.50;5048490;28;20403;-78
2022/12/29 06:15:53;;;;;;;29.75;18.23;;;16.70;76.30;;;18.53;40.88;98558.59;5047522;28;20041;-79
2022/12/29 06:18:19;;;;;;;33.13;19.73;;;16.70;76.20;;;18.48;41.22;98556.84;5011505;28;20044;-79
2022/12/29 06:20:46;;;;;;;30.13;18.80;;;16.60;76.10;;;18.52;40.99;98549.56;5034051;28;20064;-79
2022/12/29 06:23:13;;;;;;;30.70;18.88;;;16.60;76.50;;;18.57;41.09;98556.78;5033281;28;20033;-78
2022/12/29 06:25:39;;;;;;;30.38;18.98;;;16.60;76.60;;;18.52;41.09;98543.25;5017957;28;20538;-78
2022/12/29 06:28:05;;;;;;;33.40;20.45;;;16.60;76.60;;;18.57;41.39;98537.56;5028839;28;20040;-79
2022/12/29 06:30:32;;;;;;;30.52;18.63;;;16.60;77.00;;;18.55;41.16;98556.34;5018848;28;20040;-78
2022/12/29 06:32:59;;;;;;;30.98;18.55;;;16.60;77.00;;;18.50;41.38;98556.53;5031829;28;20067;-79
2022/12/29 06:35:25;;;;;;;27.92;19.10;;;16.60;77.00;;;18.53;41.29;98561.34;5036109;28;20076;-79
2022/12/29 06:37:51;;;;;;;32.03;18.17;;;16.50;76.90;;;18.54;41.50;98557.47;5028835;28;20041;-78
2022/12/29 06:40:17;;;;;;;28.40;17.85;;;16.50;77.20;;;18.57;41.26;98552.13;4999759;28;20048;-79
2022/12/29 06:42:43;;;;;;;26.67;17.02;;;16.60;77.00;;;18.50;41.35;98551.84;5029467;28;20048;-79
2022/12/29 06:45:10;;;;;;;25.60;18.42;;;16.60;76.90;;;18.59;41.32;98541.59;5029316;28;20389;-79
2022/12/29 06:47:36;;;;;;;26.70;18.90;;;16.60;77.00;;;18.52;41.45;98532.25;5007694;28;20138;-79
2022/12/29 06:50:02;;;;;;;30.55;18.23;;;16.60;77.00;;;18.54;41.46;98524.50;5011759;28;20040;-78
2022/12/29 06:52:28;;;;;;;24.80;17.75;;;16.60;77.10;;;18.55;41.06;98523.38;5028884;28;20052;-78
2022/12/29 06:54:55;;;;;;;26.55;17.15;;;16.50;77.10;;;18.60;41.16;98532.22;4997077;28;20042;-78
2022/12/29 06:57:21;;;;;;;30.15;18.98;;;16.40;77.00;;;18.53;41.10;98528.41;5043761;28;20037;-78
2022/12/29 06:59:48;;;;;;;29.55;18.80;;;16.50;77.20;;;18.56;41.17;98535.97;5029177;28;20089;-79
2022/12/29 07:02:18;;;;;;;28.67;18.50;;;16.40;77.20;;;18.52;41.24;98533.09;5046489;28;20044;-79
2022/12/29 07:04:44;;;;;;;30.83;18.63;;;16.50;77.20;;;18.51;41.49;98547.94;5027947;28;20176;-79
2022/12/29 07:07:10;;;;;;;26.67;17.55;;;16.50;77.30;;;18.54;41.44;98565.69;5042030;28;20067;-79
2022/12/29 07:09:37;;;;;;;23.35;17.08;;;16.50;77.50;;;18.52;41.74;98563.31;5023557;28;20051;-79
2022/12/29 07:12:03;;;;;;;27.65;18.00;;;16.50;77.60;;;18.55;41.42;98575.56;5033999;28;20041;-79
2022/12/29 07:14:29;;;;;;;29.00;17.85;;;16.40;77.60;;;18.56;41.36;98571.66;5022389;28;20391;-78
2022/12/29 07:16:55;;;;;;;30.45;18.38;;;16.40;77.70;;;18.55;41.28;98567.31;5003898;28;20033;-79
2022/12/29 07:19:21;;;;;;;29.75;18.50;;;16.30;77.80;;;18.54;41.47;98562.94;5022919;28;20036;-79
2022/12/29 07:21:47;;;;;;;30.80;17.33;;;16.30;78.00;;;18.49;41.69;98572.19;5030595;28;20078;-79
2022/12/29 07:24:14;;;;;;;24.42;17.08;;;16.40;78.00;;;18.52;41.64;98567.97;5047967;28;20037;-79
2022/12/29 07:26:41;;;;;;;24.95;17.15;;;16.40;78.00;;;18.51;41.48;98556.19;5028943;28;20185;-79
2022/12/29 07:29:07;;;;;;;29.67;17.98;;;16.40;77.90;;;18.57;41.32;98556.78;5016895;28;20037;-79
2022/12/29 07:31:33;;;;;;;25.00;16.60;;;16.40;77.80;;;18.60;41.23;98545.16;5050101;28;20079;-79
2022/12/29 07:34:00;;;;;;;22.33;15.57;;;16.40;77.80;;;18.56;41.83;98550.50;5038725;28;20178;-79
2022/12/29 07:36:26;;;;;;;24.48;15.80;;;16.40;77.70;;;18.58;41.48;98545.47;5040237;28;20040;-79
2022/12/29 07:38:52;;;;;;;27.40;16.90;;;16.40;77.70;;;18.54;41.50;98538.22;5007417;28;20032;-79
2022/12/29 07:41:18;;;;;;;26.42;17.55;;;16.40;78.00;;;18.55;41.32;98528.88;5049374;28;20044;-79
2022/12/29 07:43:48;;;;;;;25.95;16.67;;;16.40;78.40;;;18.55;41.38;98524.19;5031639;28;20047;-79
2022/12/29 07:46:14;;;;;;;25.33;15.65;;;16.40;78.10;;;18.55;41.56;98523.38;5021195;28;20504;-79
2022/12/29 07:48:41;;;;;;;24.38;15.82;;;16.40;78.00;;;18.53;41.46;98528.41;5028210;28;20059;-79
2022/12/29 07:51:06;;;;;;;23.77;15.80;;;16.30;77.90;;;18.57;41.56;98540.31;5027547;28;20950;-79
2022/12/29 07:53:33;;;;;;;26.73;16.60;;;16.30;78.30;;;18.56;41.28;98539.50;5019489;28;20559;-79
2022/12/29 07:55:59;;;;;;;23.42;15.98;;;16.40;77.90;;;18.58;41.33;98550.19;5033320;28;20040;-79
2022/12/29 07:58:25;;;;;;;26.23;17.15;;;16.40;77.90;;;18.52;41.48;98546.81;5049993;28;20033;-79
2022/12/29 08:00:55;;;;;;;26.23;16.38;;;16.30;78.00;;;18.58;41.24;98550.19;5036375;28;20040;-79
2022/12/29 08:03:22;;;;;;;29.15;17.50;;;16.40;78.00;;;18.58;41.38;98555.66;5034784;28;20411;-79
2022/12/29 08:05:48;;;;;;;26.48;17.08;;;16.30;78.00;;;18.60;41.29;98554.19;5058133;28;20051;-79
2022/12/29 08:08:15;;;;;;;30.08;18.05;;;16.30;78.60;;;18.53;41.12;98544.88;5021186;28;20063;-79
2022/12/29 08:10:40;;;;;;;28.85;17.55;;;16.30;77.60;;;18.56;41.19;98545.00;5024796;28;20044;-79
2022/12/29 08:13:07;;;;;;;25.85;16.58;;;16.40;77.70;;;18.53;41.42;98544.88;5048865;28;20097;-79
2022/12/29 08:15:34;;;;;;;24.58;15.82;;;16.40;77.80;;;18.58;41.11;98552.94;5033632;28;20374;-78
2022/12/29 08:18:01;;;;;;;30.90;17.65;;;16.30;77.90;;;18.63;40.98;98552.72;5036840;28;20400;-78
2022/12/29 08:20:27;;;;;;;28.73;18.15;;;16.30;78.00;;;18.56;41.25;98553.25;5019269;28;20045;-78
2022/12/29 08:22:53;;;;;;;27.85;17.23;;;16.40;77.70;;;18.61;41.00;98560.50;5049355;28;20056;-78
2022/12/29 08:25:19;;;;;;;25.10;16.95;;;16.40;77.40;;;18.58;41.20;98567.47;5035650;28;20086;-78
2022/12/29 08:27:46;;;;;;;31.05;17.70;;;16.40;77.60;;;18.59;41.20;98566.31;5037736;28;20454;-78
2022/12/29 08:30:12;;;;;;;27.23;17.15;;;16.40;77.70;;;18.62;41.05;98568.41;5035286;28;20036;-78
2022/12/29 08:32:39;;;;;;;30.42;18.23;;;16.30;77.60;;;18.62;40.96;98556.59;5026582;28;21342;-78
2022/12/29 08:35:05;;;;;;;25.33;17.42;;;16.30;77.80;;;18.62;41.04;98559.34;5014523;28;20040;-78
2022/12/29 08:37:33;;;;;;;31.80;17.02;;;16.30;77.70;;;18.61;41.18;98550.31;5019673;28;20044;-79
2022/12/29 08:40:03;;;;;;;27.17;17.25;;;16.30;77.60;;;18.55;41.18;98545.34;5046825;28;20063;-79
2022/12/29 08:42:31;;;;;;;27.45;17.42;;;16.30;77.50;;;18.57;41.07;98559.53;5033958;28;20484;-79
2022/12/29 08:44:58;;;;;;;25.02;16.73;;;16.30;77.70;;;18.63;41.18;98569.22;5014954;28;20131;-79
2022/12/29 08:47:25;;;;;;;28.80;16.40;;;16.40;77.90;;;18.63;41.08;98558.22;5025708;28;20037;-79
2022/12/29 08:49:51;;;;;;;27.20;17.73;;;16.40;77.70;;;18.62;41.16;98549.19;5030726;28;20049;-79
2022/12/29 08:52:17;;;;;;;26.52;17.23;;;16.40;77.70;;;18.63;40.90;98553.53;5028540;28;20047;-79
2022/12/29 08:54:43;;;;;;;27.48;17.25;;;16.40;77.60;;;18.63;40.94;98542.53;5034582;28;20040;-79
2022/12/29 08:57:10;;;;;;;25.60;16.23;;;16.40;77.60;;;18.66;41.07;98530.09;5048702;28;20062;-79
2022/12/29 08:59:35;;;;;;;22.73;15.68;;;16.40;77.50;;;18.63;41.08;98533.50;5019402;28;20048;-79
2022/12/29 09:02:02;;;;;;;25.33;17.63;;;16.40;77.40;;;18.59;40.96;98527.84;5035937;28;20498;-80
2022/12/29 09:04:28;;;;;;;26.33;17.45;;;16.40;77.20;;;18.59;41.03;98516.06;5048003;28;20055;-79
2022/12/29 09:06:54;;;;;;;29.30;17.33;;;16.40;77.40;;;18.59;41.09;98511.38;5034794;28;20055;-79
2022/12/29 09:09:20;;;;;;;27.55;17.17;;;16.40;77.50;;;18.65;41.14;98517.50;5047373;28;20395;-79
2022/12/29 09:11:47;;;;;;;23.73;15.77;;;16.40;77.60;;;18.58;41.44;98514.47;5032226;28;20059;-79
2022/12/29 09:14:13;;;;;;;25.98;15.15;;;16.50;78.20;;;18.62;40.63;98512.66;5035154;28;20044;-79
2022/12/29 09:16:39;;;;;;;24.88;15.48;;;16.50;77.20;;;18.61;41.10;98519.28;5014930;28;20437;-79
2022/12/29 09:19:05;;;;;;;22.77;16.63;;;16.50;77.30;;;18.59;40.92;98518.81;5017770;28;20049;-79
2022/12/29 09:21:31;;;;;;;23.80;16.27;;;16.40;77.10;;;18.62;40.89;98524.47;4990275;28;20056;-79
2022/12/29 09:23:57;;;;;;;26.52;18.05;;;16.50;77.20;;;18.63;41.12;98525.25;5020836;28;20048;-79
2022/12/29 09:26:24;;;;;;;23.17;16.17;;;16.50;77.20;;;18.66;41.08;98525.38;5022554;28;20504;-79
2022/12/29 09:28:50;;;;;;;22.95;15.43;;;16.50;77.30;;;18.69;40.79;98517.63;5025533;28;20110;-79
2022/12/29 09:31:17;;;;;;;22.60;16.70;;;16.50;77.20;;;18.66;41.29;98516.34;5009166;28;20149;-78
2022/12/29 09:33:43;;;;;;;29.40;17.65;;;16.50;77.30;;;18.64;41.02;98513.13;5007008;28;20052;-78
2022/12/29 09:36:10;;;;;;;24.95;16.63;;;16.50;77.10;;;18.64;40.97;98521.38;5020986;28;20041;-78
2022/12/29 09:38:36;;;;;;;24.63;16.77;;;16.50;77.10;;;18.65;40.83;98525.75;5025525;28;20945;-78
2022/12/29 09:42:00;;;;;;;22.83;15.95;;;16.50;77.20;;;18.68;41.15;98525.06;4999181;28;20053;-78
2022/12/29 09:44:46;;;;;;;28.75;17.92;;;16.60;77.30;;;18.69;41.01;98523.91;4973836;28;20100;-78
2022/12/29 09:47:14;;;;;;;27.25;17.20;;;16.60;77.70;;;18.68;40.81;98513.28;5009103;28;20149;-78
2022/12/29 09:50:03;;;;;;;26.75;16.80;;;16.60;77.50;;;18.63;40.74;98515.06;5015530;28;20049;-78
2022/12/29 09:52:50;;;;;;;24.08;15.02;;;16.60;76.80;;;18.68;40.69;98516.03;5037102;28;20473;-78
2022/12/29 09:55:22;;;;;;;19.13;15.23;;;16.60;76.60;;;18.69;40.73;98512.94;5018456;28;20056;-78
2022/12/29 09:58:36;;;;;;;24.38;15.32;;;16.60;76.80;;;18.66;40.96;98508.91;5034674;28;20540;-79
2022/12/29 10:01:41;;;;;;;27.15;16.10;;;16.70;76.60;;;18.66;40.68;98511.66;5028353;28;20059;-78
2022/12/29 10:04:07;;;;;;;23.88;15.35;;;16.70;76.50;;;18.69;40.81;98526.66;5013628;28;20063;-78
2022/12/29 10:06:56;;;;;;;24.20;15.70;;;16.70;76.50;;;18.73;40.79;98524.88;5029212;28;20045;-78
2022/12/29 10:09:41;;;;;;;23.25;15.48;;;16.70;76.50;;;18.71;40.76;98505.16;5032234;28;20041;-78
2022/12/29 10:12:58;;;;;;;26.67;16.05;;;16.80;76.40;;;18.69;40.68;98499.19;5049761;28;20040;-78
2022/12/29 10:16:00;;;;;;;22.08;15.75;;;16.80;76.30;;;18.69;40.77;98493.69;5013609;28;20148;-78
2022/12/29 10:18:51;;;;;;;26.52;16.98;;;16.80;76.10;;;18.72;40.52;98495.75;5041651;28;20120;-79
2022/12/29 10:21:47;;;;;;;25.17;16.67;;;16.80;76.00;;;18.74;40.51;98488.00;5048963;28;20449;-79
2022/12/29 10:24:13;;;;;;;22.30;15.40;;;16.80;76.30;;;18.76;40.67;98484.97;5033181;28;20074;-79
2022/12/29 10:26:42;;;;;;;23.58;16.80;;;16.90;76.30;;;18.80;40.59;98481.22;5047783;28;20197;-79
2022/12/29 10:29:20;;;;;;;23.15;15.90;;;16.80;76.00;;;18.81;40.55;98493.78;4997039;28;20044;-79
2022/12/29 10:32:06;;;;;;;21.25;15.30;;;16.80;75.90;;;18.79;40.43;98487.81;5032280;28;20142;-79
2022/12/29 10:34:38;;;;;;;23.73;15.05;;;16.90;76.00;;;18.84;40.53;98479.38;5048193;28;20044;-79
2022/12/29 10:37:26;;;;;;;23.63;15.65;;;16.90;75.80;;;18.79;40.61;98474.09;5044261;28;20131;-80
2022/12/29 10:39:53;;;;;;;21.60;13.95;;;16.90;76.00;;;18.90;40.60;98473.69;5013673;28;20767;-80
2022/12/29 10:42:33;;;;;;;19.98;14.55;;;16.90;76.00;;;18.87;40.36;98480.66;5048182;28;20068;-80
2022/12/29 10:44:59;;;;;;;24.08;15.52;;;17.00;75.50;;;18.89;40.43;98467.38;5036582;28;20475;-80
2022/12/29 10:47:31;;;;;;;24.10;15.30;;;17.00;75.40;;;18.90;40.34;98476.44;5024536;28;20041;-79
2022/12/29 10:50:00;;;;;;;23.98;15.25;;;17.00;75.40;;;18.90;40.26;98471.72;5011506;28;20086;-79
2022/12/29 10:52:26;;;;;;;27.75;15.68;;;17.00;75.40;;;18.89;40.01;98472.06;5040613;28;20047;-79
2022/12/29 10:55:06;;;;;;;24.33;15.50;;;17.10;75.50;;;18.89;40.29;98463.84;5027612;28;20159;-79